Ryurik — UBUA — position and weather

sailwx.info

Track history (hours):
 
Tides and Currents Weather Stations Pressure Air Temp Water Temp Dewpoint Dewpoint Depression Visibility Wind Speed Wind Dir Waves Ship Positions

Ryurik

Last reported at 2018-Jun-22 20:00 UTC. Time now 2018-Jun-22 20:25 UTC.
Position N 59°42' E 028°20'.

; draft 5.9 m.

Type: Tug. MMSI: 273435190.

Date/timePositionNaut miles runAvg speedWind from/ knotsBaromVisibWave heightAir tempDewpointWater temp
2018-Jun-22 20:00N 59°42' E 028°20'0 0.0
2018-Jun-22 19:31N 59°42' E 028°20'0 0.0
2018-Jun-22 19:00N 59°42' E 028°20'0 0.0
2018-Jun-22 18:30N 59°42' E 028°20'0 0.0
2018-Jun-22 18:00N 59°42' E 028°20'0 0.2
2018-Jun-22 17:30N 59°42' E 028°20'0 0.0
2018-Jun-22 17:00N 59°42' E 028°20'0 0.0
2018-Jun-22 16:30N 59°42' E 028°20'0 0.0
2018-Jun-22 15:59N 59°42' E 028°20'0 0.0
2018-Jun-22 15:30N 59°42' E 028°20'0 0.0
2018-Jun-22 15:00N 59°42' E 028°20'0 0.0
2018-Jun-22 14:30N 59°42' E 028°20'0 0.0
2018-Jun-22 14:00N 59°42' E 028°20'0 0.0
2018-Jun-22 13:30N 59°42' E 028°20'0 0.0
2018-Jun-22 13:00N 59°42' E 028°20'0 0.0
2018-Jun-22 12:30N 59°42' E 028°20'0 0.0
2018-Jun-22 12:00N 59°42' E 028°20'0 0.0
2018-Jun-22 11:30N 59°42' E 028°20'0 0.0
2018-Jun-22 11:00N 59°42' E 028°20'2 3.7
2018-Jun-22 10:30N 59°43' E 028°23'2 4.4
2018-Jun-22 10:00N 59°40' E 028°24'0 0.0
2018-Jun-22 09:30N 59°40' E 028°24'0 0.0
2018-Jun-22 09:00N 59°40' E 028°24'0 0.0
2018-Jun-22 08:29N 59°40' E 028°24'2 4.1
2018-Jun-22 08:00N 59°42' E 028°22'0 0.1
2018-Jun-22 07:19N 59°42' E 028°22'0 0.0
2018-Jun-22 06:49N 59°42' E 028°22'0 0.0
2018-Jun-22 06:22N 59°42' E 028°22'0 0.0
2018-Jun-22 05:52N 59°42' E 028°22'0 0.0
2018-Jun-22 05:22N 59°42' E 028°22'0 0.0
2018-Jun-22 04:52N 59°42' E 028°22'0 0.0
2018-Jun-22 04:22N 59°42' E 028°22'0 0.0
2018-Jun-22 03:52N 59°42' E 028°22'0 0.0
2018-Jun-22 03:25N 59°42' E 028°22'0 0.1
2018-Jun-22 02:55N 59°42' E 028°22'0 0.1
2018-Jun-22 02:25N 59°42' E 028°21'0 0.0
2018-Jun-22 01:55N 59°42' E 028°21'0 0.0
2018-Jun-22 01:25N 59°42' E 028°21'0 0.0
2018-Jun-22 00:55N 59°42' E 028°21'0 0.0
2018-Jun-22 00:28N 59°42' E 028°21'0 0.0
2018-Jun-21 23:58N 59°42' E 028°21'0 0.0
2018-Jun-21 23:28N 59°42' E 028°21'0 0.0
2018-Jun-21 22:58N 59°42' E 028°21'0 0.0
2018-Jun-21 22:28N 59°42' E 028°21'0 0.0
2018-Jun-21 21:58N 59°42' E 028°21'0 0.0
2018-Jun-21 21:28N 59°42' E 028°21'0 0.0
2018-Jun-21 20:58N 59°42' E 028°21'0 0.0
2018-Jun-21 20:29N 59°42' E 028°21'0 0.0
2018-Jun-21 19:58N 59°42' E 028°21'0 0.0
2018-Jun-21 19:29N 59°42' E 028°21'0 0.0
2018-Jun-21 18:58N 59°42' E 028°21'0 0.0
2018-Jun-21 18:28N 59°42' E 028°21'0 0.0
2018-Jun-21 17:58N 59°42' E 028°21'0 0.0
2018-Jun-21 17:29N 59°42' E 028°21'0 0.0
2018-Jun-21 16:58N 59°42' E 028°21'0 0.0
2018-Jun-21 16:24N 59°42' E 028°21'0 0.0
2018-Jun-21 15:57N 59°42' E 028°21'0 0.0
2018-Jun-21 15:22N 59°42' E 028°21'0 0.0
2018-Jun-21 14:52N 59°42' E 028°21'0 0.0
2018-Jun-21 14:22N 59°42' E 028°21'0 0.0
2018-Jun-21 13:52N 59°42' E 028°21'0 0.0
2018-Jun-21 13:23N 59°42' E 028°21'1 3.5
2018-Jun-21 13:00N 59°43' E 028°23'2 3.1
2018-Jun-21 12:31N 59°44' E 028°25'2 3.0
2018-Jun-21 12:00N 59°42' E 028°26'1 1.3
2018-Jun-21 11:30N 59°42' E 028°25'3 6.1
2018-Jun-21 11:00N 59°42' E 028°19'0 0.1
2018-Jun-21 10:27N 59°42' E 028°19'0 0.0
2018-Jun-21 09:57N 59°42' E 028°19'0 0.0
2018-Jun-21 09:27N 59°42' E 028°19'0 0.0
2018-Jun-21 09:00N 59°42' E 028°19'0 0.0
2018-Jun-21 08:30N 59°42' E 028°19'0 0.0
2018-Jun-21 08:00N 59°42' E 028°19'0 0.0
2018-Jun-21 07:30N 59°42' E 028°19'0 0.0
2018-Jun-21 07:00N 59°42' E 028°19'0 0.0
2018-Jun-21 06:30N 59°42' E 028°19'0 0.0
2018-Jun-21 06:00N 59°42' E 028°19'0 0.0
2018-Jun-21 05:30N 59°42' E 028°19'0 0.0
2018-Jun-21 05:00N 59°42' E 028°19'0 0.0
2018-Jun-21 04:30N 59°42' E 028°19'0 0.0
2018-Jun-21 04:00N 59°42' E 028°19'0 0.0
2018-Jun-21 03:30N 59°42' E 028°19'0 0.0
2018-Jun-21 03:00N 59°42' E 028°19'0 0.0
2018-Jun-21 02:30N 59°42' E 028°19'0 0.0
2018-Jun-21 01:51N 59°42' E 028°19'0 0.0
2018-Jun-21 01:21N 59°42' E 028°19'0 0.0
2018-Jun-21 00:54N 59°42' E 028°19'0 0.0
2018-Jun-21 00:24N 59°42' E 028°19'0 0.0
2018-Jun-20 23:54N 59°42' E 028°19'0 0.0
2018-Jun-20 23:24N 59°42' E 028°19'0 0.0
2018-Jun-20 22:54N 59°42' E 028°19'0 0.0
2018-Jun-20 22:24N 59°42' E 028°19'0 0.0
2018-Jun-20 21:57N 59°42' E 028°19'0 0.0
2018-Jun-20 21:27N 59°42' E 028°19'0 0.0
2018-Jun-20 20:57N 59°42' E 028°19'0 0.0
2018-Jun-20 20:27N 59°42' E 028°19'0 0.0
2018-Jun-20 19:57N 59°42' E 028°19'0 0.0
2018-Jun-20 19:24N 59°42' E 028°19'0 0.0
2018-Jun-20 19:00N 59°42' E 028°19'0 0.0
2018-Jun-20 18:30N 59°42' E 028°19'0 0.0
2018-Jun-20 18:00N 59°42' E 028°19'0 0.0
2018-Jun-20 17:30N 59°42' E 028°19'0 0.0
2018-Jun-20 17:00N 59°42' E 028°19'0 0.0
2018-Jun-20 16:30N 59°42' E 028°19'0 0.0
2018-Jun-20 16:00N 59°42' E 028°19'0 0.0
2018-Jun-20 15:30N 59°42' E 028°19'0 0.0
2018-Jun-20 15:00N 59°42' E 028°19'0 0.0
2018-Jun-20 14:30N 59°42' E 028°19'0 0.0
2018-Jun-20 14:00N 59°42' E 028°19'0 0.0
2018-Jun-20 13:30N 59°42' E 028°19'0 0.0
2018-Jun-20 12:57N 59°42' E 028°19'0 0.0
2018-Jun-20 12:27N 59°42' E 028°19'0 0.0
2018-Jun-20 12:00N 59°42' E 028°19'0 0.0
2018-Jun-20 11:30N 59°42' E 028°19'0 0.0
2018-Jun-20 10:58N 59°42' E 028°19'0 0.0
2018-Jun-20 10:26N 59°42' E 028°19'0 0.0
2018-Jun-20 09:56N 59°42' E 028°19'0 0.0
2018-Jun-20 09:26N 59°42' E 028°19'0 0.0
2018-Jun-20 08:53N 59°42' E 028°19'0 0.0
2018-Jun-20 08:29N 59°42' E 028°19'0 0.0
2018-Jun-20 07:59N 59°42' E 028°19'0 0.0
2018-Jun-20 07:30N 59°42' E 028°19'0 0.0
2018-Jun-20 07:00N 59°42' E 028°19'0 0.0
2018-Jun-20 06:30N 59°42' E 028°19'0 0.0
2018-Jun-20 06:00N 59°42' E 028°19'0 0.0
2018-Jun-20 05:30N 59°42' E 028°19'0 0.0
2018-Jun-20 05:00N 59°42' E 028°19'0 0.0
2018-Jun-20 04:30N 59°42' E 028°19'0 0.0
2018-Jun-20 03:51N 59°42' E 028°19'0 0.0
2018-Jun-20 03:21N 59°42' E 028°19'0 0.0
2018-Jun-20 02:51N 59°42' E 028°19'0 0.0
2018-Jun-20 02:24N 59°42' E 028°19'0 0.0
2018-Jun-20 01:54N 59°42' E 028°19'0 0.0
2018-Jun-20 01:24N 59°42' E 028°19'0 0.0
2018-Jun-20 00:54N 59°42' E 028°19'0 0.0
2018-Jun-20 00:28N 59°42' E 028°19'0 0.0
2018-Jun-19 23:57N 59°42' E 028°19'0 0.0
2018-Jun-19 23:30N 59°42' E 028°19'0 0.0
2018-Jun-19 22:57N 59°42' E 028°19'0 0.0
2018-Jun-19 22:27N 59°42' E 028°19'0 0.0
2018-Jun-19 21:57N 59°42' E 028°19'0 0.0
2018-Jun-19 21:27N 59°42' E 028°19'0 0.0
2018-Jun-19 21:00N 59°42' E 028°19'0 0.0
2018-Jun-19 20:30N 59°42' E 028°19'0 0.0
2018-Jun-19 20:00N 59°42' E 028°19'0 0.0
2018-Jun-19 19:30N 59°42' E 028°19'0 0.0
2018-Jun-19 19:00N 59°42' E 028°19'0 0.0
2018-Jun-19 18:30N 59°42' E 028°19'0 0.0
2018-Jun-19 18:00N 59°42' E 028°19'0 0.0
2018-Jun-19 17:30N 59°42' E 028°19'0 0.0
2018-Jun-19 17:00N 59°42' E 028°19'0 0.0
2018-Jun-19 16:30N 59°42' E 028°19'0 0.0
2018-Jun-19 15:57N 59°42' E 028°19'0 0.0
2018-Jun-19 15:27N 59°42' E 028°19'0 0.0
2018-Jun-19 14:57N 59°42' E 028°19'0 0.0
2018-Jun-19 14:24N 59°42' E 028°19'0 0.0
2018-Jun-19 13:57N 59°42' E 028°19'0 0.1
2018-Jun-19 13:27N 59°42' E 028°19'1 3.1
2018-Jun-19 13:01N 59°43' E 028°22'2 4.0
2018-Jun-19 12:30N 59°42' E 028°26'0 0.5
2018-Jun-19 12:01N 59°42' E 028°25'1 1.7
2018-Jun-19 11:30N 59°42' E 028°24'3 6.6
2018-Jun-19 11:00N 59°46' E 028°24'4 8.2
2018-Jun-19 10:30N 59°42' E 028°21'0 0.1
2018-Jun-19 10:01N 59°42' E 028°21'0 0.0
2018-Jun-19 09:29N 59°42' E 028°21'0 0.0
2018-Jun-19 09:00N 59°42' E 028°21'0 0.0
2018-Jun-19 08:30N 59°42' E 028°21'0 0.0
2018-Jun-19 08:00N 59°42' E 028°21'0 0.0
2018-Jun-19 07:30N 59°42' E 028°21'0 0.0
2018-Jun-19 07:01N 59°42' E 028°21'0 0.0
2018-Jun-19 06:31N 59°42' E 028°21'0 0.0
2018-Jun-19 06:01N 59°42' E 028°21'0 0.0
2018-Jun-19 05:30N 59°42' E 028°21'0 0.0
2018-Jun-19 05:01N 59°42' E 028°21'0 0.0
2018-Jun-19 04:31N 59°42' E 028°21'0 0.0
2018-Jun-19 04:00N 59°42' E 028°21'0 0.0
2018-Jun-19 03:30N 59°42' E 028°21'0 0.0
2018-Jun-19 03:00N 59°42' E 028°21'0 0.0
2018-Jun-19 02:30N 59°42' E 028°21'0 0.0
2018-Jun-19 02:00N 59°42' E 028°21'0 0.0
2018-Jun-19 01:30N 59°42' E 028°21'0 0.0
2018-Jun-19 01:00N 59°42' E 028°21'0 0.0
2018-Jun-19 00:30N 59°42' E 028°21'0 0.0
2018-Jun-19 00:00N 59°42' E 028°21'0 0.0
2018-Jun-18 23:30N 59°42' E 028°21'0 0.0
2018-Jun-18 22:58N 59°42' E 028°21'0 0.0
2018-Jun-18 22:29N 59°42' E 028°21'0 0.0
2018-Jun-18 21:58N 59°42' E 028°21'0 0.0
2018-Jun-18 21:30N 59°42' E 028°21'0 0.0
2018-Jun-18 21:00N 59°42' E 028°21'0 0.0
2018-Jun-18 20:30N 59°42' E 028°21'0 0.0
2018-Jun-18 20:00N 59°42' E 028°21'0 0.0
2018-Jun-18 19:31N 59°42' E 028°21'0 0.0
2018-Jun-18 19:00N 59°42' E 028°21'0 0.0
2018-Jun-18 18:30N 59°42' E 028°21'0 0.0
2018-Jun-18 18:00N 59°42' E 028°21'0 0.0
2018-Jun-18 17:31N 59°42' E 028°21'0 0.0
2018-Jun-18 17:00N 59°42' E 028°21'0 0.0
2018-Jun-18 16:30N 59°42' E 028°21'0 0.0
2018-Jun-18 16:00N 59°42' E 028°21'0 0.0
2018-Jun-18 15:31N 59°42' E 028°21'0 0.0
2018-Jun-18 15:01N 59°42' E 028°21'0 0.0
2018-Jun-18 14:31N 59°42' E 028°21'0 0.0
2018-Jun-18 14:00N 59°42' E 028°21'0 0.1
2018-Jun-18 13:30N 59°42' E 028°21'0 0.0
2018-Jun-18 13:00N 59°42' E 028°21'0 0.1
2018-Jun-18 12:30N 59°42' E 028°21'0 0.0
2018-Jun-18 12:00N 59°42' E 028°21'0 0.0
2018-Jun-18 11:30N 59°42' E 028°21'0 0.0
2018-Jun-18 11:00N 59°42' E 028°21'0 0.0
2018-Jun-18 10:30N 59°42' E 028°21'0 0.0
2018-Jun-18 10:00N 59°42' E 028°21'0 0.0
2018-Jun-18 09:30N 59°42' E 028°21'0 0.0
2018-Jun-18 09:00N 59°42' E 028°21'0 0.0
2018-Jun-18 08:30N 59°42' E 028°21'0 0.0
2018-Jun-18 08:00N 59°42' E 028°21'0 0.0
2018-Jun-18 07:30N 59°42' E 028°21'0 0.0
2018-Jun-18 07:00N 59°42' E 028°21'0 0.0
2018-Jun-18 06:30N 59°42' E 028°21'0 0.0
2018-Jun-18 06:00N 59°42' E 028°21'0 0.0
2018-Jun-18 05:30N 59°42' E 028°21'0 0.0
2018-Jun-18 05:00N 59°42' E 028°21'0 0.0
2018-Jun-18 04:30N 59°42' E 028°21'0 0.0
2018-Jun-18 04:00N 59°42' E 028°21'0 0.0
2018-Jun-18 03:30N 59°42' E 028°21'0 0.0
2018-Jun-18 03:00N 59°42' E 028°21'0 0.0
2018-Jun-18 02:30N 59°42' E 028°21'0 0.0
2018-Jun-18 02:00N 59°42' E 028°21'0 0.0
2018-Jun-18 01:30N 59°42' E 028°21'0 0.0
2018-Jun-18 01:00N 59°42' E 028°21'0 0.0
2018-Jun-18 00:30N 59°42' E 028°21'0 0.0
2018-Jun-18 00:00N 59°42' E 028°21'0 0.0
2018-Jun-17 23:30N 59°42' E 028°21'0 0.0
2018-Jun-17 23:00N 59°42' E 028°21'0 0.0
2018-Jun-17 22:30N 59°42' E 028°21'0 0.0
2018-Jun-17 22:00N 59°42' E 028°21'0 0.0
2018-Jun-17 21:30N 59°42' E 028°21'0 0.0
2018-Jun-17 21:00N 59°42' E 028°21'0 0.1
2018-Jun-17 20:30N 59°42' E 028°21'4 7.4
2018-Jun-17 19:59N 59°45' E 028°24'3 5.9
2018-Jun-17 19:30N 59°42' E 028°25'2 4.6
2018-Jun-17 19:00N 59°41' E 028°23'0 0.0
2018-Jun-17 18:30N 59°41' E 028°23'2 3.7
2018-Jun-17 18:00N 59°42' E 028°23'1 1.5
2018-Jun-17 17:30N 59°42' E 028°21'0 0.0
2018-Jun-17 17:00N 59°42' E 028°21'0 0.0
2018-Jun-17 16:30N 59°42' E 028°21'0 0.0
2018-Jun-17 16:00N 59°42' E 028°21'0 0.0
2018-Jun-17 15:29N 59°42' E 028°21'0 0.0
2018-Jun-17 15:00N 59°42' E 028°21'0 0.0
2018-Jun-17 14:30N 59°42' E 028°21'0 0.0
2018-Jun-17 14:00N 59°42' E 028°21'0 0.0
2018-Jun-17 13:29N 59°42' E 028°21'0 0.0
2018-Jun-17 13:00N 59°42' E 028°21'0 0.0
2018-Jun-17 12:30N 59°42' E 028°21'0 0.0
2018-Jun-17 12:00N 59°42' E 028°21'0 0.0
2018-Jun-17 11:30N 59°42' E 028°21'0 0.0
2018-Jun-17 11:00N 59°42' E 028°21'0 0.0
2018-Jun-17 10:30N 59°42' E 028°21'0 0.0
2018-Jun-17 10:00N 59°42' E 028°21'0 0.0
2018-Jun-17 09:30N 59°42' E 028°21'0 0.0
2018-Jun-17 09:00N 59°42' E 028°21'0 0.0
2018-Jun-17 08:28N 59°42' E 028°21'0 0.0
2018-Jun-17 08:00N 59°42' E 028°21'0 0.0
2018-Jun-17 07:30N 59°42' E 028°21'0 0.0
2018-Jun-17 07:00N 59°42' E 028°21'0 0.0
2018-Jun-17 06:30N 59°42' E 028°21'0 0.0
2018-Jun-17 06:00N 59°42' E 028°21'0 0.0
2018-Jun-17 05:30N 59°42' E 028°21'0 0.0
2018-Jun-17 05:00N 59°42' E 028°21'0 0.0
2018-Jun-17 04:30N 59°42' E 028°21'0 0.0
2018-Jun-17 04:00N 59°42' E 028°21'0 0.0
2018-Jun-17 03:30N 59°42' E 028°21'0 0.0
2018-Jun-17 03:00N 59°42' E 028°21'0 0.0
2018-Jun-17 02:30N 59°42' E 028°21'0 0.0
2018-Jun-17 02:00N 59°42' E 028°21'0 0.0
2018-Jun-17 01:30N 59°42' E 028°21'0 0.0
2018-Jun-17 01:00N 59°42' E 028°21'0 0.0
2018-Jun-17 00:30N 59°42' E 028°21'0 0.0
2018-Jun-17 00:00N 59°42' E 028°21'0 0.0
2018-Jun-16 23:30N 59°42' E 028°21'0 0.0
2018-Jun-16 23:00N 59°42' E 028°21'0 0.0
2018-Jun-16 22:30N 59°42' E 028°21'0 0.0
2018-Jun-16 22:00N 59°42' E 028°21'0 0.0
2018-Jun-16 21:30N 59°42' E 028°21'0 0.0
2018-Jun-16 21:00N 59°42' E 028°21'0 0.0
2018-Jun-16 20:30N 59°42' E 028°21'0 0.1
2018-Jun-16 20:00N 59°42' E 028°21'0 0.0
2018-Jun-16 19:30N 59°42' E 028°21'0 0.0
2018-Jun-16 19:00N 59°42' E 028°21'0 0.0
2018-Jun-16 18:30N 59°42' E 028°21'0 0.0
2018-Jun-16 18:00N 59°42' E 028°21'0 0.0
2018-Jun-16 17:30N 59°42' E 028°21'0 0.0
2018-Jun-16 17:00N 59°42' E 028°21'0 0.0
2018-Jun-16 16:30N 59°42' E 028°21'0 0.0
2018-Jun-16 16:00N 59°42' E 028°21'0 0.0
2018-Jun-16 15:30N 59°42' E 028°21'0 0.0
2018-Jun-16 15:00N 59°42' E 028°21'0 0.0
2018-Jun-16 14:30N 59°42' E 028°21'0 0.0
2018-Jun-16 14:00N 59°42' E 028°21'0 0.0
2018-Jun-16 13:30N 59°42' E 028°21'0 0.0
2018-Jun-16 13:00N 59°42' E 028°21'0 0.0
2018-Jun-16 12:30N 59°42' E 028°21'0 0.0
2018-Jun-16 12:00N 59°42' E 028°21'0 0.0
2018-Jun-16 11:30N 59°42' E 028°21'0 0.0
2018-Jun-16 11:00N 59°42' E 028°21'0 0.1
2018-Jun-16 10:30N 59°42' E 028°21'1 2.8
2018-Jun-16 10:00N 59°42' E 028°24'1 2.2
2018-Jun-16 09:30N 59°40' E 028°24'0 0.0
2018-Jun-16 09:00N 59°40' E 028°24'0 0.0
2018-Jun-16 08:30N 59°40' E 028°24'1 1.2
2018-Jun-16 08:00N 59°41' E 028°23'1 2.7
2018-Jun-16 07:30N 59°42' E 028°24'4 7.8
2018-Jun-16 07:00N 59°46' E 028°24'4 8.3
2018-Jun-16 06:30N 59°42' E 028°21'0 0.0
2018-Jun-16 06:00N 59°42' E 028°21'0 0.0
2018-Jun-16 05:30N 59°42' E 028°21'0 0.0
2018-Jun-16 05:00N 59°42' E 028°21'0 0.0
2018-Jun-16 04:30N 59°42' E 028°21'0 0.0
2018-Jun-16 04:00N 59°42' E 028°21'0 0.0
2018-Jun-16 03:30N 59°42' E 028°21'0 0.0
2018-Jun-16 03:00N 59°42' E 028°21'0 0.0
2018-Jun-16 02:30N 59°42' E 028°21'0 0.0
2018-Jun-16 02:00N 59°42' E 028°21'0 0.0
2018-Jun-16 01:30N 59°42' E 028°21'0 0.0
2018-Jun-16 01:00N 59°42' E 028°21'2 4.6
2018-Jun-16 00:30N 59°44' E 028°23'2 3.2
2018-Jun-16 00:00N 59°43' E 028°25'0 0.9
2018-Jun-15 23:30N 59°42' E 028°26'0 0.1
2018-Jun-15 23:00N 59°42' E 028°26'2 4.1
2018-Jun-15 22:30N 59°42' E 028°22'0 0.0
2018-Jun-15 22:00N 59°42' E 028°22'0 0.0
2018-Jun-15 21:28N 59°42' E 028°22'0 0.0
2018-Jun-15 21:00N 59°42' E 028°22'0 0.0
2018-Jun-15 20:30N 59°42' E 028°22'0 0.0
2018-Jun-15 19:58N 59°42' E 028°22'0 0.0
2018-Jun-15 19:30N 59°42' E 028°22'0 0.0
2018-Jun-15 19:00N 59°42' E 028°22'0 0.0
2018-Jun-15 18:30N 59°42' E 028°22'0 0.1
2018-Jun-15 17:58N 59°42' E 028°22'0 0.1
2018-Jun-15 17:30N 59°42' E 028°22'0 0.0
2018-Jun-15 17:00N 59°42' E 028°22'0 0.0
2018-Jun-15 16:30N 59°42' E 028°22'0 0.1
2018-Jun-15 16:00N 59°42' E 028°22'3 6.1
2018-Jun-15 15:30N 59°45' E 028°24'1 1.5
2018-Jun-15 15:01N 59°44' E 028°25'2 3.7
2018-Jun-15 14:30N 59°43' E 028°25'0 0.2
2018-Jun-15 14:01N 59°42' E 028°25'2 4.3
2018-Jun-15 13:30N 59°42' E 028°21'0 0.1
2018-Jun-15 13:00N 59°42' E 028°21'0 0.0
2018-Jun-15 12:26N 59°42' E 028°21'0 0.1
2018-Jun-15 12:00N 59°42' E 028°21'0 0.0
2018-Jun-15 11:30N 59°42' E 028°21'0 0.0
2018-Jun-15 11:00N 59°42' E 028°21'0 0.0
2018-Jun-15 10:30N 59°42' E 028°21'0 0.0
2018-Jun-15 10:00N 59°42' E 028°21'0 0.0
2018-Jun-15 09:30N 59°42' E 028°21'0 0.0
2018-Jun-15 09:00N 59°42' E 028°21'0 0.0
2018-Jun-15 08:30N 59°42' E 028°21'0 0.0
2018-Jun-15 08:00N 59°42' E 028°21'0 0.0
2018-Jun-15 07:30N 59°42' E 028°21'0 0.0
2018-Jun-15 07:00N 59°42' E 028°21'0 0.0
2018-Jun-15 06:30N 59°42' E 028°21'0 0.0
2018-Jun-15 06:00N 59°42' E 028°21'0 0.0
2018-Jun-15 05:30N 59°42' E 028°21'0 0.0
2018-Jun-15 05:00N 59°42' E 028°21'0 0.0
2018-Jun-15 04:30N 59°42' E 028°21'0 0.0
2018-Jun-15 04:00N 59°42' E 028°21'0 0.0
2018-Jun-15 03:30N 59°42' E 028°21'0 0.0
2018-Jun-15 03:00N 59°42' E 028°21'0 0.0
2018-Jun-15 02:30N 59°42' E 028°21'0 0.0
2018-Jun-15 02:00N 59°42' E 028°21'0 0.0
2018-Jun-15 01:30N 59°42' E 028°21'0 0.0
2018-Jun-15 01:00N 59°42' E 028°21'0 0.0
2018-Jun-15 00:30N 59°42' E 028°21'0 0.0
2018-Jun-15 00:01N 59°42' E 028°21'1 2.8
2018-Jun-14 23:30N 59°42' E 028°24'1 1.8
2018-Jun-14 23:00N 59°42' E 028°26'0 0.7
2018-Jun-14 22:30N 59°42' E 028°25'2 3.5
2018-Jun-14 22:00N 59°43' E 028°23'3 5.7
2018-Jun-14 21:30N 59°46' E 028°24'4 8.3
2018-Jun-14 21:00N 59°42' E 028°22'0 0.8
2018-Jun-14 20:30N 59°42' E 028°21'0 0.0
2018-Jun-14 20:00N 59°42' E 028°21'0 0.0
2018-Jun-14 19:30N 59°42' E 028°21'0 0.0
2018-Jun-14 19:00N 59°42' E 028°21'0 0.0
2018-Jun-14 18:30N 59°42' E 028°21'0 0.0
2018-Jun-14 18:00N 59°42' E 028°21'0 0.0
2018-Jun-14 17:30N 59°42' E 028°21'0 0.0
2018-Jun-14 16:59N 59°42' E 028°21'0 0.0
2018-Jun-14 16:30N 59°42' E 028°21'0 0.0
2018-Jun-14 16:00N 59°42' E 028°21'0 0.0
2018-Jun-14 15:30N 59°42' E 028°21'0 0.0
2018-Jun-14 15:00N 59°42' E 028°21'0 0.0
2018-Jun-14 14:30N 59°42' E 028°21'0 0.0
2018-Jun-14 14:00N 59°42' E 028°21'0 0.0
2018-Jun-14 13:30N 59°42' E 028°21'0 0.0
2018-Jun-14 13:00N 59°42' E 028°21'0 0.0
2018-Jun-14 12:30N 59°42' E 028°21'0 0.0
2018-Jun-14 12:00N 59°42' E 028°21'0 0.0
2018-Jun-14 11:30N 59°42' E 028°21'0 0.0
2018-Jun-14 11:00N 59°42' E 028°21'0 0.0
2018-Jun-14 10:30N 59°42' E 028°21'0 0.0
2018-Jun-14 10:00N 59°42' E 028°21'0 0.5
2018-Jun-14 09:30N 59°42' E 028°22'2 3.8
2018-Jun-14 09:00N 59°40' E 028°24'0 0.0
2018-Jun-14 08:30N 59°40' E 028°24'0 0.0
2018-Jun-14 08:00N 59°40' E 028°24'2 4.3
2018-Jun-14 07:30N 59°42' E 028°26'0 0.2
2018-Jun-14 07:00N 59°42' E 028°25'1 2.4
2018-Jun-14 06:30N 59°41' E 028°24'3 6.6
2018-Jun-14 06:00N 59°45' E 028°24'1 1.3
2018-Jun-14 05:30N 59°45' E 028°24'4 7.5
2018-Jun-14 05:00N 59°42' E 028°21'0 0.0
2018-Jun-14 04:30N 59°42' E 028°21'0 0.0
2018-Jun-14 03:59N 59°42' E 028°21'0 0.0
2018-Jun-14 03:30N 59°42' E 028°21'0 0.0
2018-Jun-14 03:00N 59°42' E 028°21'0 0.0
2018-Jun-14 02:30N 59°42' E 028°21'0 0.0
2018-Jun-14 02:00N 59°42' E 028°21'0 0.0
2018-Jun-14 01:30N 59°42' E 028°21'0 0.0
2018-Jun-14 01:00N 59°42' E 028°21'0 0.0
2018-Jun-14 00:30N 59°42' E 028°21'0 0.0
2018-Jun-14 00:00N 59°42' E 028°21'0 0.0
2018-Jun-13 23:30N 59°42' E 028°21'0 0.0
2018-Jun-13 23:00N 59°42' E 028°21'0 0.0
2018-Jun-13 22:30N 59°42' E 028°21'0 0.0
2018-Jun-13 22:00N 59°42' E 028°21'0 0.0
2018-Jun-13 21:30N 59°42' E 028°21'0 0.0
2018-Jun-13 21:00N 59°42' E 028°21'0 0.0
2018-Jun-13 20:30N 59°42' E 028°21'0 0.0
2018-Jun-13 20:00N 59°42' E 028°21'0 0.0
2018-Jun-13 19:30N 59°42' E 028°21'0 0.0
2018-Jun-13 19:00N 59°42' E 028°21'0 0.0
2018-Jun-13 18:30N 59°42' E 028°21'2 3.7
2018-Jun-13 18:00N 59°43' E 028°23'1 2.6
2018-Jun-13 17:31N 59°44' E 028°25'3 6.9
2018-Jun-13 17:01N 59°41' E 028°24'1 1.0
2018-Jun-13 16:30N 59°41' E 028°23'2 3.6
2018-Jun-13 16:00N 59°42' E 028°22'1 1.5
2018-Jun-13 15:30N 59°42' E 028°21'0 0.0
2018-Jun-13 15:00N 59°42' E 028°21'0 0.0
2018-Jun-13 14:30N 59°42' E 028°21'0 0.0
2018-Jun-13 14:00N 59°42' E 028°21'0 0.0
2018-Jun-13 13:30N 59°42' E 028°21'0 0.0
2018-Jun-13 13:00N 59°42' E 028°21'0 0.0
2018-Jun-13 12:30N 59°42' E 028°21'0 0.0
2018-Jun-13 12:00N 59°42' E 028°21'0 0.0
2018-Jun-13 11:30N 59°42' E 028°21'0 0.0
2018-Jun-13 11:00N 59°42' E 028°21'0 0.0
2018-Jun-13 10:30N 59°42' E 028°21'0 0.0
2018-Jun-13 10:00N 59°42' E 028°21'0 0.0
2018-Jun-13 09:30N 59°42' E 028°21'0 0.0
2018-Jun-13 09:00N 59°42' E 028°21'0 0.0
2018-Jun-13 08:30N 59°42' E 028°21'0 0.0
2018-Jun-13 08:00N 59°42' E 028°21'0 0.0
2018-Jun-13 07:30N 59°42' E 028°21'0 0.0
2018-Jun-13 07:00N 59°42' E 028°21'0 0.0
2018-Jun-13 06:30N 59°42' E 028°21'0 0.0
2018-Jun-13 06:00N 59°42' E 028°21'0 0.0
2018-Jun-13 05:30N 59°42' E 028°21'0 0.0
2018-Jun-13 05:00N 59°42' E 028°21'0 0.0
2018-Jun-13 04:30N 59°42' E 028°21'0 0.0
2018-Jun-13 04:00N 59°42' E 028°21'0 0.0
2018-Jun-13 03:30N 59°42' E 028°21'0 0.0
2018-Jun-13 03:00N 59°42' E 028°21'0 0.0
2018-Jun-13 02:30N 59°42' E 028°21'0 0.0
2018-Jun-13 02:00N 59°42' E 028°21'0 0.0
2018-Jun-13 01:30N 59°42' E 028°21'0 0.0
2018-Jun-13 01:00N 59°42' E 028°21'0 0.0
2018-Jun-13 00:30N 59°42' E 028°21'0 0.0
2018-Jun-13 00:00N 59°42' E 028°21'0 0.0
2018-Jun-12 23:30N 59°42' E 028°21'0 0.0
2018-Jun-12 23:00N 59°42' E 028°21'0 0.0
2018-Jun-12 22:30N 59°42' E 028°21'0 0.0
2018-Jun-12 22:00N 59°42' E 028°21'0 0.0
2018-Jun-12 21:30N 59°42' E 028°21'0 0.0
2018-Jun-12 21:00N 59°42' E 028°21'0 0.0
2018-Jun-12 20:30N 59°42' E 028°21'  
Track history (hours):
 
Tides and Currents Weather Stations Pressure Air Temp Water Temp Dewpoint Dewpoint Depression Visibility Wind Speed Wind Dir Waves Ship Positions

Ryurik

Last reported at 2018-Jun-22 20:00 UTC. Time now 2018-Jun-22 20:25 UTC.
Position N 59°42' E 028°20'.

; draft 5.9 m.

Type: Tug. MMSI: 273435190.

Date/timePositionNaut miles runAvg speedWind from/ knotsBaromVisibWave heightAir tempDewpointWater temp
2018-Jun-22 20:00N 59°42' E 028°20'0 0.0
2018-Jun-22 19:31N 59°42' E 028°20'0 0.0
2018-Jun-22 19:00N 59°42' E 028°20'0 0.0
2018-Jun-22 18:30N 59°42' E 028°20'0 0.0
2018-Jun-22 18:00N 59°42' E 028°20'0 0.2
2018-Jun-22 17:30N 59°42' E 028°20'0 0.0
2018-Jun-22 17:00N 59°42' E 028°20'0 0.0
2018-Jun-22 16:30N 59°42' E 028°20'0 0.0
2018-Jun-22 15:59N 59°42' E 028°20'0 0.0
2018-Jun-22 15:30N 59°42' E 028°20'0 0.0
2018-Jun-22 15:00N 59°42' E 028°20'0 0.0
2018-Jun-22 14:30N 59°42' E 028°20'0 0.0
2018-Jun-22 14:00N 59°42' E 028°20'0 0.0
2018-Jun-22 13:30N 59°42' E 028°20'0 0.0
2018-Jun-22 13:00N 59°42' E 028°20'0 0.0
2018-Jun-22 12:30N 59°42' E 028°20'0 0.0
2018-Jun-22 12:00N 59°42' E 028°20'0 0.0
2018-Jun-22 11:30N 59°42' E 028°20'0 0.0
2018-Jun-22 11:00N 59°42' E 028°20'2 3.7
2018-Jun-22 10:30N 59°43' E 028°23'2 4.4
2018-Jun-22 10:00N 59°40' E 028°24'0 0.0
2018-Jun-22 09:30N 59°40' E 028°24'0 0.0
2018-Jun-22 09:00N 59°40' E 028°24'0 0.0
2018-Jun-22 08:29N 59°40' E 028°24'2 4.1
2018-Jun-22 08:00N 59°42' E 028°22'0 0.1
2018-Jun-22 07:19N 59°42' E 028°22'0 0.0
2018-Jun-22 06:49N 59°42' E 028°22'0 0.0
2018-Jun-22 06:22N 59°42' E 028°22'0 0.0
2018-Jun-22 05:52N 59°42' E 028°22'0 0.0
2018-Jun-22 05:22N 59°42' E 028°22'0 0.0
2018-Jun-22 04:52N 59°42' E 028°22'0 0.0
2018-Jun-22 04:22N 59°42' E 028°22'0 0.0
2018-Jun-22 03:52N 59°42' E 028°22'0 0.0
2018-Jun-22 03:25N 59°42' E 028°22'0 0.1
2018-Jun-22 02:55N 59°42' E 028°22'0 0.1
2018-Jun-22 02:25N 59°42' E 028°21'0 0.0
2018-Jun-22 01:55N 59°42' E 028°21'0 0.0
2018-Jun-22 01:25N 59°42' E 028°21'0 0.0
2018-Jun-22 00:55N 59°42' E 028°21'0 0.0
2018-Jun-22 00:28N 59°42' E 028°21'0 0.0
2018-Jun-21 23:58N 59°42' E 028°21'0 0.0
2018-Jun-21 23:28N 59°42' E 028°21'0 0.0
2018-Jun-21 22:58N 59°42' E 028°21'0 0.0
2018-Jun-21 22:28N 59°42' E 028°21'0 0.0
2018-Jun-21 21:58N 59°42' E 028°21'0 0.0
2018-Jun-21 21:28N 59°42' E 028°21'0 0.0
2018-Jun-21 20:58N 59°42' E 028°21'0 0.0
2018-Jun-21 20:29N 59°42' E 028°21'0 0.0
2018-Jun-21 19:58N 59°42' E 028°21'0 0.0
2018-Jun-21 19:29N 59°42' E 028°21'0 0.0
2018-Jun-21 18:58N 59°42' E 028°21'0 0.0
2018-Jun-21 18:28N 59°42' E 028°21'0 0.0
2018-Jun-21 17:58N 59°42' E 028°21'0 0.0
2018-Jun-21 17:29N 59°42' E 028°21'0 0.0
2018-Jun-21 16:58N 59°42' E 028°21'0 0.0
2018-Jun-21 16:24N 59°42' E 028°21'0 0.0
2018-Jun-21 15:57N 59°42' E 028°21'0 0.0
2018-Jun-21 15:22N 59°42' E 028°21'0 0.0
2018-Jun-21 14:52N 59°42' E 028°21'0 0.0
2018-Jun-21 14:22N 59°42' E 028°21'0 0.0
2018-Jun-21 13:52N 59°42' E 028°21'0 0.0
2018-Jun-21 13:23N 59°42' E 028°21'1 3.5
2018-Jun-21 13:00N 59°43' E 028°23'2 3.1
2018-Jun-21 12:31N 59°44' E 028°25'2 3.0
2018-Jun-21 12:00N 59°42' E 028°26'1 1.3
2018-Jun-21 11:30N 59°42' E 028°25'3 6.1
2018-Jun-21 11:00N 59°42' E 028°19'0 0.1
2018-Jun-21 10:27N 59°42' E 028°19'0 0.0
2018-Jun-21 09:57N 59°42' E 028°19'0 0.0
2018-Jun-21 09:27N 59°42' E 028°19'0 0.0
2018-Jun-21 09:00N 59°42' E 028°19'0 0.0
2018-Jun-21 08:30N 59°42' E 028°19'0 0.0
2018-Jun-21 08:00N 59°42' E 028°19'0 0.0
2018-Jun-21 07:30N 59°42' E 028°19'0 0.0
2018-Jun-21 07:00N 59°42' E 028°19'0 0.0
2018-Jun-21 06:30N 59°42' E 028°19'0 0.0
2018-Jun-21 06:00N 59°42' E 028°19'0 0.0
2018-Jun-21 05:30N 59°42' E 028°19'0 0.0
2018-Jun-21 05:00N 59°42' E 028°19'0 0.0
2018-Jun-21 04:30N 59°42' E 028°19'0 0.0
2018-Jun-21 04:00N 59°42' E 028°19'0 0.0
2018-Jun-21 03:30N 59°42' E 028°19'0 0.0
2018-Jun-21 03:00N 59°42' E 028°19'0 0.0
2018-Jun-21 02:30N 59°42' E 028°19'0 0.0
2018-Jun-21 01:51N 59°42' E 028°19'0 0.0
2018-Jun-21 01:21N 59°42' E 028°19'0 0.0
2018-Jun-21 00:54N 59°42' E 028°19'0 0.0
2018-Jun-21 00:24N 59°42' E 028°19'0 0.0
2018-Jun-20 23:54N 59°42' E 028°19'0 0.0
2018-Jun-20 23:24N 59°42' E 028°19'0 0.0
2018-Jun-20 22:54N 59°42' E 028°19'0 0.0
2018-Jun-20 22:24N 59°42' E 028°19'0 0.0
2018-Jun-20 21:57N 59°42' E 028°19'0 0.0
2018-Jun-20 21:27N 59°42' E 028°19'0 0.0
2018-Jun-20 20:57N 59°42' E 028°19'0 0.0
2018-Jun-20 20:27N 59°42' E 028°19'0 0.0
2018-Jun-20 19:57N 59°42' E 028°19'0 0.0
2018-Jun-20 19:24N 59°42' E 028°19'0 0.0
2018-Jun-20 19:00N 59°42' E 028°19'0 0.0
2018-Jun-20 18:30N 59°42' E 028°19'0 0.0
2018-Jun-20 18:00N 59°42' E 028°19'0 0.0
2018-Jun-20 17:30N 59°42' E 028°19'0 0.0
2018-Jun-20 17:00N 59°42' E 028°19'0 0.0
2018-Jun-20 16:30N 59°42' E 028°19'0 0.0
2018-Jun-20 16:00N 59°42' E 028°19'0 0.0
2018-Jun-20 15:30N 59°42' E 028°19'0 0.0
2018-Jun-20 15:00N 59°42' E 028°19'0 0.0
2018-Jun-20 14:30N 59°42' E 028°19'0 0.0
2018-Jun-20 14:00N 59°42' E 028°19'0 0.0
2018-Jun-20 13:30N 59°42' E 028°19'0 0.0
2018-Jun-20 12:57N 59°42' E 028°19'0 0.0
2018-Jun-20 12:27N 59°42' E 028°19'0 0.0
2018-Jun-20 12:00N 59°42' E 028°19'0 0.0
2018-Jun-20 11:30N 59°42' E 028°19'0 0.0
2018-Jun-20 10:58N 59°42' E 028°19'0 0.0
2018-Jun-20 10:26N 59°42' E 028°19'0 0.0
2018-Jun-20 09:56N 59°42' E 028°19'0 0.0
2018-Jun-20 09:26N 59°42' E 028°19'0 0.0
2018-Jun-20 08:53N 59°42' E 028°19'0 0.0
2018-Jun-20 08:29N 59°42' E 028°19'0 0.0
2018-Jun-20 07:59N 59°42' E 028°19'0 0.0
2018-Jun-20 07:30N 59°42' E 028°19'0 0.0
2018-Jun-20 07:00N 59°42' E 028°19'0 0.0
2018-Jun-20 06:30N 59°42' E 028°19'0 0.0
2018-Jun-20 06:00N 59°42' E 028°19'0 0.0
2018-Jun-20 05:30N 59°42' E 028°19'0 0.0
2018-Jun-20 05:00N 59°42' E 028°19'0 0.0
2018-Jun-20 04:30N 59°42' E 028°19'0 0.0
2018-Jun-20 03:51N 59°42' E 028°19'0 0.0
2018-Jun-20 03:21N 59°42' E 028°19'0 0.0
2018-Jun-20 02:51N 59°42' E 028°19'0 0.0
2018-Jun-20 02:24N 59°42' E 028°19'0 0.0
2018-Jun-20 01:54N 59°42' E 028°19'0 0.0
2018-Jun-20 01:24N 59°42' E 028°19'0 0.0
2018-Jun-20 00:54N 59°42' E 028°19'0 0.0
2018-Jun-20 00:28N 59°42' E 028°19'0 0.0
2018-Jun-19 23:57N 59°42' E 028°19'0 0.0
2018-Jun-19 23:30N 59°42' E 028°19'0 0.0
2018-Jun-19 22:57N 59°42' E 028°19'0 0.0
2018-Jun-19 22:27N 59°42' E 028°19'0 0.0
2018-Jun-19 21:57N 59°42' E 028°19'0 0.0
2018-Jun-19 21:27N 59°42' E 028°19'0 0.0
2018-Jun-19 21:00N 59°42' E 028°19'0 0.0
2018-Jun-19 20:30N 59°42' E 028°19'0 0.0
2018-Jun-19 20:00N 59°42' E 028°19'0 0.0
2018-Jun-19 19:30N 59°42' E 028°19'0 0.0
2018-Jun-19 19:00N 59°42' E 028°19'0 0.0
2018-Jun-19 18:30N 59°42' E 028°19'0 0.0
2018-Jun-19 18:00N 59°42' E 028°19'0 0.0
2018-Jun-19 17:30N 59°42' E 028°19'0 0.0
2018-Jun-19 17:00N 59°42' E 028°19'0 0.0
2018-Jun-19 16:30N 59°42' E 028°19'0 0.0
2018-Jun-19 15:57N 59°42' E 028°19'0 0.0
2018-Jun-19 15:27N 59°42' E 028°19'0 0.0
2018-Jun-19 14:57N 59°42' E 028°19'0 0.0
2018-Jun-19 14:24N 59°42' E 028°19'0 0.0
2018-Jun-19 13:57N 59°42' E 028°19'0 0.1
2018-Jun-19 13:27N 59°42' E 028°19'1 3.1
2018-Jun-19 13:01N 59°43' E 028°22'2 4.0
2018-Jun-19 12:30N 59°42' E 028°26'0 0.5
2018-Jun-19 12:01N 59°42' E 028°25'1 1.7
2018-Jun-19 11:30N 59°42' E 028°24'3 6.6
2018-Jun-19 11:00N 59°46' E 028°24'4 8.2
2018-Jun-19 10:30N 59°42' E 028°21'0 0.1
2018-Jun-19 10:01N 59°42' E 028°21'0 0.0
2018-Jun-19 09:29N 59°42' E 028°21'0 0.0
2018-Jun-19 09:00N 59°42' E 028°21'0 0.0
2018-Jun-19 08:30N 59°42' E 028°21'0 0.0
2018-Jun-19 08:00N 59°42' E 028°21'0 0.0
2018-Jun-19 07:30N 59°42' E 028°21'0 0.0
2018-Jun-19 07:01N 59°42' E 028°21'0 0.0
2018-Jun-19 06:31N 59°42' E 028°21'0 0.0
2018-Jun-19 06:01N 59°42' E 028°21'0 0.0
2018-Jun-19 05:30N 59°42' E 028°21'0 0.0
2018-Jun-19 05:01N 59°42' E 028°21'0 0.0
2018-Jun-19 04:31N 59°42' E 028°21'0 0.0
2018-Jun-19 04:00N 59°42' E 028°21'0 0.0
2018-Jun-19 03:30N 59°42' E 028°21'0 0.0
2018-Jun-19 03:00N 59°42' E 028°21'0 0.0
2018-Jun-19 02:30N 59°42' E 028°21'0 0.0
2018-Jun-19 02:00N 59°42' E 028°21'0 0.0
2018-Jun-19 01:30N 59°42' E 028°21'0 0.0
2018-Jun-19 01:00N 59°42' E 028°21'0 0.0
2018-Jun-19 00:30N 59°42' E 028°21'0 0.0
2018-Jun-19 00:00N 59°42' E 028°21'0 0.0
2018-Jun-18 23:30N 59°42' E 028°21'0 0.0
2018-Jun-18 22:58N 59°42' E 028°21'0 0.0
2018-Jun-18 22:29N 59°42' E 028°21'0 0.0
2018-Jun-18 21:58N 59°42' E 028°21'0 0.0
2018-Jun-18 21:30N 59°42' E 028°21'0 0.0
2018-Jun-18 21:00N 59°42' E 028°21'0 0.0
2018-Jun-18 20:30N 59°42' E 028°21'0 0.0
2018-Jun-18 20:00N 59°42' E 028°21'0 0.0
2018-Jun-18 19:31N 59°42' E 028°21'0 0.0
2018-Jun-18 19:00N 59°42' E 028°21'0 0.0
2018-Jun-18 18:30N 59°42' E 028°21'0 0.0
2018-Jun-18 18:00N 59°42' E 028°21'0 0.0
2018-Jun-18 17:31N 59°42' E 028°21'0 0.0
2018-Jun-18 17:00N 59°42' E 028°21'0 0.0
2018-Jun-18 16:30N 59°42' E 028°21'0 0.0
2018-Jun-18 16:00N 59°42' E 028°21'0 0.0
2018-Jun-18 15:31N 59°42' E 028°21'0 0.0
2018-Jun-18 15:01N 59°42' E 028°21'0 0.0
2018-Jun-18 14:31N 59°42' E 028°21'0 0.0
2018-Jun-18 14:00N 59°42' E 028°21'0 0.1
2018-Jun-18 13:30N 59°42' E 028°21'0 0.0
2018-Jun-18 13:00N 59°42' E 028°21'0 0.1
2018-Jun-18 12:30N 59°42' E 028°21'0 0.0
2018-Jun-18 12:00N 59°42' E 028°21'0 0.0
2018-Jun-18 11:30N 59°42' E 028°21'0 0.0
2018-Jun-18 11:00N 59°42' E 028°21'0 0.0
2018-Jun-18 10:30N 59°42' E 028°21'0 0.0
2018-Jun-18 10:00N 59°42' E 028°21'0 0.0
2018-Jun-18 09:30N 59°42' E 028°21'0 0.0
2018-Jun-18 09:00N 59°42' E 028°21'0 0.0
2018-Jun-18 08:30N 59°42' E 028°21'0 0.0
2018-Jun-18 08:00N 59°42' E 028°21'0 0.0
2018-Jun-18 07:30N 59°42' E 028°21'0 0.0
2018-Jun-18 07:00N 59°42' E 028°21'0 0.0
2018-Jun-18 06:30N 59°42' E 028°21'0 0.0
2018-Jun-18 06:00N 59°42' E 028°21'0 0.0
2018-Jun-18 05:30N 59°42' E 028°21'0 0.0
2018-Jun-18 05:00N 59°42' E 028°21'0 0.0
2018-Jun-18 04:30N 59°42' E 028°21'0 0.0
2018-Jun-18 04:00N 59°42' E 028°21'0 0.0
2018-Jun-18 03:30N 59°42' E 028°21'0 0.0
2018-Jun-18 03:00N 59°42' E 028°21'0 0.0
2018-Jun-18 02:30N 59°42' E 028°21'0 0.0
2018-Jun-18 02:00N 59°42' E 028°21'0 0.0
2018-Jun-18 01:30N 59°42' E 028°21'0 0.0
2018-Jun-18 01:00N 59°42' E 028°21'0 0.0
2018-Jun-18 00:30N 59°42' E 028°21'0 0.0
2018-Jun-18 00:00N 59°42' E 028°21'0 0.0
2018-Jun-17 23:30N 59°42' E 028°21'0 0.0
2018-Jun-17 23:00N 59°42' E 028°21'0 0.0
2018-Jun-17 22:30N 59°42' E 028°21'0 0.0
2018-Jun-17 22:00N 59°42' E 028°21'0 0.0
2018-Jun-17 21:30N 59°42' E 028°21'0 0.0
2018-Jun-17 21:00N 59°42' E 028°21'0 0.1
2018-Jun-17 20:30N 59°42' E 028°21'4 7.4
2018-Jun-17 19:59N 59°45' E 028°24'3 5.9
2018-Jun-17 19:30N 59°42' E 028°25'2 4.6
2018-Jun-17 19:00N 59°41' E 028°23'0 0.0
2018-Jun-17 18:30N 59°41' E 028°23'2 3.7
2018-Jun-17 18:00N 59°42' E 028°23'1 1.5
2018-Jun-17 17:30N 59°42' E 028°21'0 0.0
2018-Jun-17 17:00N 59°42' E 028°21'0 0.0
2018-Jun-17 16:30N 59°42' E 028°21'0 0.0
2018-Jun-17 16:00N 59°42' E 028°21'0 0.0
2018-Jun-17 15:29N 59°42' E 028°21'0 0.0
2018-Jun-17 15:00N 59°42' E 028°21'0 0.0
2018-Jun-17 14:30N 59°42' E 028°21'0 0.0
2018-Jun-17 14:00N 59°42' E 028°21'0 0.0
2018-Jun-17 13:29N 59°42' E 028°21'0 0.0
2018-Jun-17 13:00N 59°42' E 028°21'0 0.0
2018-Jun-17 12:30N 59°42' E 028°21'0 0.0
2018-Jun-17 12:00N 59°42' E 028°21'0 0.0
2018-Jun-17 11:30N 59°42' E 028°21'0 0.0
2018-Jun-17 11:00N 59°42' E 028°21'0 0.0
2018-Jun-17 10:30N 59°42' E 028°21'0 0.0
2018-Jun-17 10:00N 59°42' E 028°21'0 0.0
2018-Jun-17 09:30N 59°42' E 028°21'0 0.0
2018-Jun-17 09:00N 59°42' E 028°21'0 0.0
2018-Jun-17 08:28N 59°42' E 028°21'0 0.0
2018-Jun-17 08:00N 59°42' E 028°21'0 0.0
2018-Jun-17 07:30N 59°42' E 028°21'0 0.0
2018-Jun-17 07:00N 59°42' E 028°21'0 0.0
2018-Jun-17 06:30N 59°42' E 028°21'0 0.0
2018-Jun-17 06:00N 59°42' E 028°21'0 0.0
2018-Jun-17 05:30N 59°42' E 028°21'0 0.0
2018-Jun-17 05:00N 59°42' E 028°21'0 0.0
2018-Jun-17 04:30N 59°42' E 028°21'0 0.0
2018-Jun-17 04:00N 59°42' E 028°21'0 0.0
2018-Jun-17 03:30N 59°42' E 028°21'0 0.0
2018-Jun-17 03:00N 59°42' E 028°21'0 0.0
2018-Jun-17 02:30N 59°42' E 028°21'0 0.0
2018-Jun-17 02:00N 59°42' E 028°21'0 0.0
2018-Jun-17 01:30N 59°42' E 028°21'0 0.0
2018-Jun-17 01:00N 59°42' E 028°21'0 0.0
2018-Jun-17 00:30N 59°42' E 028°21'0 0.0
2018-Jun-17 00:00N 59°42' E 028°21'0 0.0
2018-Jun-16 23:30N 59°42' E 028°21'0 0.0
2018-Jun-16 23:00N 59°42' E 028°21'0 0.0
2018-Jun-16 22:30N 59°42' E 028°21'0 0.0
2018-Jun-16 22:00N 59°42' E 028°21'0 0.0
2018-Jun-16 21:30N 59°42' E 028°21'0 0.0
2018-Jun-16 21:00N 59°42' E 028°21'0 0.0
2018-Jun-16 20:30N 59°42' E 028°21'0 0.1
2018-Jun-16 20:00N 59°42' E 028°21'0 0.0
2018-Jun-16 19:30N 59°42' E 028°21'0 0.0
2018-Jun-16 19:00N 59°42' E 028°21'0 0.0
2018-Jun-16 18:30N 59°42' E 028°21'0 0.0
2018-Jun-16 18:00N 59°42' E 028°21'0 0.0
2018-Jun-16 17:30N 59°42' E 028°21'0 0.0
2018-Jun-16 17:00N 59°42' E 028°21'0 0.0
2018-Jun-16 16:30N 59°42' E 028°21'0 0.0
2018-Jun-16 16:00N 59°42' E 028°21'0 0.0
2018-Jun-16 15:30N 59°42' E 028°21'0 0.0
2018-Jun-16 15:00N 59°42' E 028°21'0 0.0
2018-Jun-16 14:30N 59°42' E 028°21'0 0.0
2018-Jun-16 14:00N 59°42' E 028°21'0 0.0
2018-Jun-16 13:30N 59°42' E 028°21'0 0.0
2018-Jun-16 13:00N 59°42' E 028°21'0 0.0
2018-Jun-16 12:30N 59°42' E 028°21'0 0.0
2018-Jun-16 12:00N 59°42' E 028°21'0 0.0
2018-Jun-16 11:30N 59°42' E 028°21'0 0.0
2018-Jun-16 11:00N 59°42' E 028°21'0 0.1
2018-Jun-16 10:30N 59°42' E 028°21'1 2.8
2018-Jun-16 10:00N 59°42' E 028°24'1 2.2
2018-Jun-16 09:30N 59°40' E 028°24'0 0.0
2018-Jun-16 09:00N 59°40' E 028°24'0 0.0
2018-Jun-16 08:30N 59°40' E 028°24'1 1.2
2018-Jun-16 08:00N 59°41' E 028°23'1 2.7
2018-Jun-16 07:30N 59°42' E 028°24'4 7.8
2018-Jun-16 07:00N 59°46' E 028°24'4 8.3
2018-Jun-16 06:30N 59°42' E 028°21'0 0.0
2018-Jun-16 06:00N 59°42' E 028°21'0 0.0
2018-Jun-16 05:30N 59°42' E 028°21'0 0.0
2018-Jun-16 05:00N 59°42' E 028°21'0 0.0
2018-Jun-16 04:30N 59°42' E 028°21'0 0.0
2018-Jun-16 04:00N 59°42' E 028°21'0 0.0
2018-Jun-16 03:30N 59°42' E 028°21'0 0.0
2018-Jun-16 03:00N 59°42' E 028°21'0 0.0
2018-Jun-16 02:30N 59°42' E 028°21'0 0.0
2018-Jun-16 02:00N 59°42' E 028°21'0 0.0
2018-Jun-16 01:30N 59°42' E 028°21'0 0.0
2018-Jun-16 01:00N 59°42' E 028°21'2 4.6
2018-Jun-16 00:30N 59°44' E 028°23'2 3.2
2018-Jun-16 00:00N 59°43' E 028°25'0 0.9
2018-Jun-15 23:30N 59°42' E 028°26'0 0.1
2018-Jun-15 23:00N 59°42' E 028°26'2 4.1
2018-Jun-15 22:30N 59°42' E 028°22'0 0.0
2018-Jun-15 22:00N 59°42' E 028°22'0 0.0
2018-Jun-15 21:28N 59°42' E 028°22'0 0.0
2018-Jun-15 21:00N 59°42' E 028°22'0 0.0
2018-Jun-15 20:30N 59°42' E 028°22'0 0.0
2018-Jun-15 19:58N 59°42' E 028°22'0 0.0
2018-Jun-15 19:30N 59°42' E 028°22'0 0.0
2018-Jun-15 19:00N 59°42' E 028°22'0 0.0
2018-Jun-15 18:30N 59°42' E 028°22'0 0.1
2018-Jun-15 17:58N 59°42' E 028°22'0 0.1
2018-Jun-15 17:30N 59°42' E 028°22'0 0.0
2018-Jun-15 17:00N 59°42' E 028°22'0 0.0
2018-Jun-15 16:30N 59°42' E 028°22'0 0.1
2018-Jun-15 16:00N 59°42' E 028°22'3 6.1
2018-Jun-15 15:30N 59°45' E 028°24'1 1.5
2018-Jun-15 15:01N 59°44' E 028°25'2 3.7
2018-Jun-15 14:30N 59°43' E 028°25'0 0.2
2018-Jun-15 14:01N 59°42' E 028°25'2 4.3
2018-Jun-15 13:30N 59°42' E 028°21'0 0.1
2018-Jun-15 13:00N 59°42' E 028°21'0 0.0
2018-Jun-15 12:26N 59°42' E 028°21'0 0.1
2018-Jun-15 12:00N 59°42' E 028°21'0 0.0
2018-Jun-15 11:30N 59°42' E 028°21'0 0.0
2018-Jun-15 11:00N 59°42' E 028°21'0 0.0
2018-Jun-15 10:30N 59°42' E 028°21'0 0.0
2018-Jun-15 10:00N 59°42' E 028°21'0 0.0
2018-Jun-15 09:30N 59°42' E 028°21'0 0.0
2018-Jun-15 09:00N 59°42' E 028°21'0 0.0
2018-Jun-15 08:30N 59°42' E 028°21'0 0.0
2018-Jun-15 08:00N 59°42' E 028°21'0 0.0
2018-Jun-15 07:30N 59°42' E 028°21'0 0.0
2018-Jun-15 07:00N 59°42' E 028°21'0 0.0
2018-Jun-15 06:30N 59°42' E 028°21'0 0.0
2018-Jun-15 06:00N 59°42' E 028°21'0 0.0
2018-Jun-15 05:30N 59°42' E 028°21'0 0.0
2018-Jun-15 05:00N 59°42' E 028°21'0 0.0
2018-Jun-15 04:30N 59°42' E 028°21'0 0.0
2018-Jun-15 04:00N 59°42' E 028°21'0 0.0
2018-Jun-15 03:30N 59°42' E 028°21'0 0.0
2018-Jun-15 03:00N 59°42' E 028°21'0 0.0
2018-Jun-15 02:30N 59°42' E 028°21'0 0.0
2018-Jun-15 02:00N 59°42' E 028°21'0 0.0
2018-Jun-15 01:30N 59°42' E 028°21'0 0.0
2018-Jun-15 01:00N 59°42' E 028°21'0 0.0
2018-Jun-15 00:30N 59°42' E 028°21'0 0.0
2018-Jun-15 00:01N 59°42' E 028°21'1 2.8
2018-Jun-14 23:30N 59°42' E 028°24'1 1.8
2018-Jun-14 23:00N 59°42' E 028°26'0 0.7
2018-Jun-14 22:30N 59°42' E 028°25'2 3.5
2018-Jun-14 22:00N 59°43' E 028°23'3 5.7
2018-Jun-14 21:30N 59°46' E 028°24'4 8.3
2018-Jun-14 21:00N 59°42' E 028°22'0 0.8
2018-Jun-14 20:30N 59°42' E 028°21'0 0.0
2018-Jun-14 20:00N 59°42' E 028°21'0 0.0
2018-Jun-14 19:30N 59°42' E 028°21'0 0.0
2018-Jun-14 19:00N 59°42' E 028°21'0 0.0
2018-Jun-14 18:30N 59°42' E 028°21'0 0.0
2018-Jun-14 18:00N 59°42' E 028°21'0 0.0
2018-Jun-14 17:30N 59°42' E 028°21'0 0.0
2018-Jun-14 16:59N 59°42' E 028°21'0 0.0
2018-Jun-14 16:30N 59°42' E 028°21'0 0.0
2018-Jun-14 16:00N 59°42' E 028°21'0 0.0
2018-Jun-14 15:30N 59°42' E 028°21'0 0.0
2018-Jun-14 15:00N 59°42' E 028°21'0 0.0
2018-Jun-14 14:30N 59°42' E 028°21'0 0.0
2018-Jun-14 14:00N 59°42' E 028°21'0 0.0
2018-Jun-14 13:30N 59°42' E 028°21'0 0.0
2018-Jun-14 13:00N 59°42' E 028°21'0 0.0
2018-Jun-14 12:30N 59°42' E 028°21'0 0.0
2018-Jun-14 12:00N 59°42' E 028°21'0 0.0
2018-Jun-14 11:30N 59°42' E 028°21'0 0.0
2018-Jun-14 11:00N 59°42' E 028°21'0 0.0
2018-Jun-14 10:30N 59°42' E 028°21'0 0.0
2018-Jun-14 10:00N 59°42' E 028°21'0 0.5
2018-Jun-14 09:30N 59°42' E 028°22'2 3.8
2018-Jun-14 09:00N 59°40' E 028°24'0 0.0
2018-Jun-14 08:30N 59°40' E 028°24'0 0.0
2018-Jun-14 08:00N 59°40' E 028°24'2 4.3
2018-Jun-14 07:30N 59°42' E 028°26'0 0.2
2018-Jun-14 07:00N 59°42' E 028°25'1 2.4
2018-Jun-14 06:30N 59°41' E 028°24'3 6.6
2018-Jun-14 06:00N 59°45' E 028°24'1 1.3
2018-Jun-14 05:30N 59°45' E 028°24'4 7.5
2018-Jun-14 05:00N 59°42' E 028°21'0 0.0
2018-Jun-14 04:30N 59°42' E 028°21'0 0.0
2018-Jun-14 03:59N 59°42' E 028°21'0 0.0
2018-Jun-14 03:30N 59°42' E 028°21'0 0.0
2018-Jun-14 03:00N 59°42' E 028°21'0 0.0
2018-Jun-14 02:30N 59°42' E 028°21'0 0.0
2018-Jun-14 02:00N 59°42' E 028°21'0 0.0
2018-Jun-14 01:30N 59°42' E 028°21'0 0.0
2018-Jun-14 01:00N 59°42' E 028°21'0 0.0
2018-Jun-14 00:30N 59°42' E 028°21'0 0.0
2018-Jun-14 00:00N 59°42' E 028°21'0 0.0
2018-Jun-13 23:30N 59°42' E 028°21'0 0.0
2018-Jun-13 23:00N 59°42' E 028°21'0 0.0
2018-Jun-13 22:30N 59°42' E 028°21'0 0.0
2018-Jun-13 22:00N 59°42' E 028°21'0 0.0
2018-Jun-13 21:30N 59°42' E 028°21'0 0.0
2018-Jun-13 21:00N 59°42' E 028°21'0 0.0
2018-Jun-13 20:30N 59°42' E 028°21'0 0.0
2018-Jun-13 20:00N 59°42' E 028°21'0 0.0
2018-Jun-13 19:30N 59°42' E 028°21'0 0.0
2018-Jun-13 19:00N 59°42' E 028°21'0 0.0
2018-Jun-13 18:30N 59°42' E 028°21'2 3.7
2018-Jun-13 18:00N 59°43' E 028°23'1 2.6
2018-Jun-13 17:31N 59°44' E 028°25'3 6.9
2018-Jun-13 17:01N 59°41' E 028°24'1 1.0
2018-Jun-13 16:30N 59°41' E 028°23'2 3.6
2018-Jun-13 16:00N 59°42' E 028°22'1 1.5
2018-Jun-13 15:30N 59°42' E 028°21'0 0.0
2018-Jun-13 15:00N 59°42' E 028°21'0 0.0
2018-Jun-13 14:30N 59°42' E 028°21'0 0.0
2018-Jun-13 14:00N 59°42' E 028°21'0 0.0
2018-Jun-13 13:30N 59°42' E 028°21'0 0.0
2018-Jun-13 13:00N 59°42' E 028°21'0 0.0
2018-Jun-13 12:30N 59°42' E 028°21'0 0.0
2018-Jun-13 12:00N 59°42' E 028°21'0 0.0
2018-Jun-13 11:30N 59°42' E 028°21'0 0.0
2018-Jun-13 11:00N 59°42' E 028°21'0 0.0
2018-Jun-13 10:30N 59°42' E 028°21'0 0.0
2018-Jun-13 10:00N 59°42' E 028°21'0 0.0
2018-Jun-13 09:30N 59°42' E 028°21'0 0.0
2018-Jun-13 09:00N 59°42' E 028°21'0 0.0
2018-Jun-13 08:30N 59°42' E 028°21'0 0.0
2018-Jun-13 08:00N 59°42' E 028°21'0 0.0
2018-Jun-13 07:30N 59°42' E 028°21'0 0.0
2018-Jun-13 07:00N 59°42' E 028°21'0 0.0
2018-Jun-13 06:30N 59°42' E 028°21'0 0.0
2018-Jun-13 06:00N 59°42' E 028°21'0 0.0
2018-Jun-13 05:30N 59°42' E 028°21'0 0.0
2018-Jun-13 05:00N 59°42' E 028°21'0 0.0
2018-Jun-13 04:30N 59°42' E 028°21'0 0.0
2018-Jun-13 04:00N 59°42' E 028°21'0 0.0
2018-Jun-13 03:30N 59°42' E 028°21'0 0.0
2018-Jun-13 03:00N 59°42' E 028°21'0 0.0
2018-Jun-13 02:30N 59°42' E 028°21'0 0.0
2018-Jun-13 02:00N 59°42' E 028°21'0 0.0
2018-Jun-13 01:30N 59°42' E 028°21'0 0.0
2018-Jun-13 01:00N 59°42' E 028°21'0 0.0
2018-Jun-13 00:30N 59°42' E 028°21'0 0.0
2018-Jun-13 00:00N 59°42' E 028°21'0 0.0
2018-Jun-12 23:30N 59°42' E 028°21'0 0.0
2018-Jun-12 23:00N 59°42' E 028°21'0 0.0
2018-Jun-12 22:30N 59°42' E 028°21'0 0.0
2018-Jun-12 22:00N 59°42' E 028°21'0 0.0
2018-Jun-12 21:30N 59°42' E 028°21'0 0.0
2018-Jun-12 21:00N 59°42' E 028°21'0 0.0
2018-Jun-12 20:30N 59°42' E 028°21'  

Dump ship's entire track history